sensor_id;sensor_type;location;lat;lon;timestamp;P1;durP1;ratioP1;P2;durP2;ratioP2
32641;SDS011;19323;56.072;9.698;2022-08-05T00:01:30;0.60;;;0.35;;
32641;SDS011;19323;56.072;9.698;2022-08-05T00:04:01;2.05;;;0.30;;
32641;SDS011;19323;56.072;9.698;2022-08-05T00:06:30;1.80;;;0.60;;
32641;SDS011;19323;56.072;9.698;2022-08-05T00:09:02;1.20;;;0.50;;
32641;SDS011;19323;56.072;9.698;2022-08-05T00:11:38;0.70;;;0.60;;
32641;SDS011;19323;56.072;9.698;2022-08-05T00:14:20;1.35;;;0.60;;
32641;SDS011;19323;56.072;9.698;2022-08-05T00:16:54;1.42;;;0.50;;
32641;SDS011;19323;56.072;9.698;2022-08-05T00:19:21;0.30;;;0.20;;
32641;SDS011;19323;56.072;9.698;2022-08-05T00:21:49;1.15;;;0.70;;
32641;SDS011;19323;56.072;9.698;2022-08-05T00:24:19;2.30;;;1.10;;
32641;SDS011;19323;56.072;9.698;2022-08-05T00:26:55;0.57;;;0.25;;
32641;SDS011;19323;56.072;9.698;2022-08-05T00:29:23;0.80;;;0.52;;
32641;SDS011;19323;56.072;9.698;2022-08-05T00:31:51;1.02;;;0.30;;
32641;SDS011;19323;56.072;9.698;2022-08-05T00:34:39;0.75;;;0.38;;
32641;SDS011;19323;56.072;9.698;2022-08-05T00:37:26;0.68;;;0.50;;
32641;SDS011;19323;56.072;9.698;2022-08-05T00:40:12;0.75;;;0.25;;
32641;SDS011;19323;56.072;9.698;2022-08-05T00:42:43;1.23;;;0.40;;
32641;SDS011;19323;56.072;9.698;2022-08-05T00:45:14;1.10;;;0.40;;
32641;SDS011;19323;56.072;9.698;2022-08-05T00:47:40;1.38;;;0.40;;
32641;SDS011;19323;56.072;9.698;2022-08-05T00:50:27;0.55;;;0.30;;
32641;SDS011;19323;56.072;9.698;2022-08-05T00:52:53;0.68;;;0.40;;
32641;SDS011;19323;56.072;9.698;2022-08-05T00:55:21;1.15;;;0.30;;
32641;SDS011;19323;56.072;9.698;2022-08-05T00:58:07;0.70;;;0.30;;
32641;SDS011;19323;56.072;9.698;2022-08-05T01:00:36;1.02;;;0.38;;
32641;SDS011;19323;56.072;9.698;2022-08-05T01:03:05;3.20;;;0.70;;
32641;SDS011;19323;56.072;9.698;2022-08-05T01:05:33;1.10;;;0.47;;
32641;SDS011;19323;56.072;9.698;2022-08-05T01:08:00;0.40;;;0.35;;
32641;SDS011;19323;56.072;9.698;2022-08-05T01:10:57;2.38;;;0.35;;
32641;SDS011;19323;56.072;9.698;2022-08-05T01:13:40;0.45;;;0.22;;
32641;SDS011;19323;56.072;9.698;2022-08-05T01:16:29;1.17;;;0.30;;
32641;SDS011;19323;56.072;9.698;2022-08-05T01:19:18;1.20;;;0.30;;
32641;SDS011;19323;56.072;9.698;2022-08-05T01:30:26;0.90;;;0.52;;
32641;SDS011;19323;56.072;9.698;2022-08-05T01:33:00;1.02;;;0.32;;
32641;SDS011;19323;56.072;9.698;2022-08-05T01:35:33;1.17;;;0.40;;
32641;SDS011;19323;56.072;9.698;2022-08-05T01:38:18;0.98;;;0.20;;
32641;SDS011;19323;56.072;9.698;2022-08-05T01:40:53;0.47;;;0.30;;
32641;SDS011;19323;56.072;9.698;2022-08-05T01:43:22;1.15;;;0.30;;
32641;SDS011;19323;56.072;9.698;2022-08-05T01:45:50;1.95;;;0.35;;
32641;SDS011;19323;56.072;9.698;2022-08-05T01:48:22;0.90;;;0.40;;
32641;SDS011;19323;56.072;9.698;2022-08-05T01:50:52;1.27;;;0.20;;
32641;SDS011;19323;56.072;9.698;2022-08-05T01:53:21;4.13;;;0.98;;
32641;SDS011;19323;56.072;9.698;2022-08-05T01:56:09;1.48;;;0.35;;
32641;SDS011;19323;56.072;9.698;2022-08-05T01:58:59;0.98;;;0.35;;
32641;SDS011;19323;56.072;9.698;2022-08-05T02:01:30;0.95;;;0.70;;
32641;SDS011;19323;56.072;9.698;2022-08-05T02:04:05;0.40;;;0.30;;
32641;SDS011;19323;56.072;9.698;2022-08-05T02:06:35;0.73;;;0.20;;
32641;SDS011;19323;56.072;9.698;2022-08-05T02:09:04;1.35;;;0.35;;
32641;SDS011;19323;56.072;9.698;2022-08-05T02:11:36;0.63;;;0.28;;
32641;SDS011;19323;56.072;9.698;2022-08-05T02:14:22;1.30;;;0.38;;
32641;SDS011;19323;56.072;9.698;2022-08-05T02:17:00;0.57;;;0.40;;
32641;SDS011;19323;56.072;9.698;2022-08-05T02:19:33;0.82;;;0.28;;
32641;SDS011;19323;56.072;9.698;2022-08-05T02:25:13;1.00;;;0.57;;
32641;SDS011;19323;56.072;9.698;2022-08-05T02:27:46;1.00;;;0.30;;
32641;SDS011;19323;56.072;9.698;2022-08-05T02:30:25;1.15;;;0.70;;
32641;SDS011;19323;56.072;9.698;2022-08-05T02:32:59;1.42;;;0.35;;
32641;SDS011;19323;56.072;9.698;2022-08-05T02:35:27;0.73;;;0.28;;
32641;SDS011;19323;56.072;9.698;2022-08-05T02:38:02;5.00;;;0.45;;
32641;SDS011;19323;56.072;9.698;2022-08-05T02:40:34;1.35;;;0.73;;
32641;SDS011;19323;56.072;9.698;2022-08-05T02:43:02;1.48;;;0.50;;
32641;SDS011;19323;56.072;9.698;2022-08-05T02:45:32;2.63;;;0.63;;
32641;SDS011;19323;56.072;9.698;2022-08-05T02:48:19;0.95;;;0.40;;
32641;SDS011;19323;56.072;9.698;2022-08-05T02:50:55;1.38;;;0.30;;
32641;SDS011;19323;56.072;9.698;2022-08-05T02:53:25;1.67;;;0.28;;
32641;SDS011;19323;56.072;9.698;2022-08-05T02:56:01;1.30;;;0.25;;
32641;SDS011;19323;56.072;9.698;2022-08-05T02:58:30;0.98;;;0.30;;
32641;SDS011;19323;56.072;9.698;2022-08-05T03:00:59;0.70;;;0.30;;
32641;SDS011;19323;56.072;9.698;2022-08-05T03:03:27;0.50;;;0.20;;
32641;SDS011;19323;56.072;9.698;2022-08-05T03:06:15;1.20;;;0.30;;
32641;SDS011;19323;56.072;9.698;2022-08-05T03:09:03;1.40;;;0.50;;
32641;SDS011;19323;56.072;9.698;2022-08-05T03:11:32;1.15;;;0.20;;
32641;SDS011;19323;56.072;9.698;2022-08-05T03:14:19;0.70;;;0.20;;
32641;SDS011;19323;56.072;9.698;2022-08-05T03:16:46;3.47;;;0.40;;
32641;SDS011;19323;56.072;9.698;2022-08-05T03:19:13;0.85;;;0.20;;
32641;SDS011;19323;56.072;9.698;2022-08-05T03:21:59;0.90;;;0.25;;
32641;SDS011;19323;56.072;9.698;2022-08-05T03:24:26;2.08;;;0.40;;
32641;SDS011;19323;56.072;9.698;2022-08-05T03:26:56;1.52;;;0.45;;
32641;SDS011;19323;56.072;9.698;2022-08-05T03:29:25;2.20;;;0.20;;
32641;SDS011;19323;56.072;9.698;2022-08-05T03:32:13;4.43;;;0.45;;
32641;SDS011;19323;56.072;9.698;2022-08-05T03:34:41;2.88;;;0.65;;
32641;SDS011;19323;56.072;9.698;2022-08-05T03:37:16;2.42;;;0.45;;
32641;SDS011;19323;56.072;9.698;2022-08-05T03:39:50;2.33;;;0.55;;
32641;SDS011;19323;56.072;9.698;2022-08-05T03:42:26;0.73;;;0.20;;
32641;SDS011;19323;56.072;9.698;2022-08-05T03:44:57;2.08;;;0.47;;
32641;SDS011;19323;56.072;9.698;2022-08-05T03:47:23;4.22;;;0.40;;
32641;SDS011;19323;56.072;9.698;2022-08-05T03:49:55;1.80;;;0.35;;
32641;SDS011;19323;56.072;9.698;2022-08-05T03:52:23;1.98;;;0.35;;
32641;SDS011;19323;56.072;9.698;2022-08-05T03:55:16;3.22;;;0.28;;
32641;SDS011;19323;56.072;9.698;2022-08-05T03:58:09;2.05;;;0.30;;
32641;SDS011;19323;56.072;9.698;2022-08-05T04:00:37;1.00;;;0.40;;
32641;SDS011;19323;56.072;9.698;2022-08-05T04:03:07;1.40;;;0.40;;
32641;SDS011;19323;56.072;9.698;2022-08-05T04:05:53;2.70;;;0.65;;
32641;SDS011;19323;56.072;9.698;2022-08-05T04:08:22;3.95;;;0.40;;
32641;SDS011;19323;56.072;9.698;2022-08-05T04:11:01;2.55;;;0.40;;
32641;SDS011;19323;56.072;9.698;2022-08-05T04:13:29;3.50;;;0.50;;
32641;SDS011;19323;56.072;9.698;2022-08-05T04:16:16;2.08;;;0.20;;
32641;SDS011;19323;56.072;9.698;2022-08-05T04:18:55;2.55;;;0.63;;
32641;SDS011;19323;56.072;9.698;2022-08-05T04:21:23;0.70;;;0.38;;
32641;SDS011;19323;56.072;9.698;2022-08-05T04:24:09;3.35;;;0.40;;
32641;SDS011;19323;56.072;9.698;2022-08-05T04:26:48;0.98;;;0.30;;
32641;SDS011;19323;56.072;9.698;2022-08-05T04:29:15;2.58;;;0.57;;
32641;SDS011;19323;56.072;9.698;2022-08-05T04:31:42;0.80;;;0.20;;
32641;SDS011;19323;56.072;9.698;2022-08-05T04:34:08;1.08;;;0.20;;
32641;SDS011;19323;56.072;9.698;2022-08-05T04:36:44;2.05;;;0.63;;
32641;SDS011;19323;56.072;9.698;2022-08-05T04:39:16;0.43;;;0.20;;
32641;SDS011;19323;56.072;9.698;2022-08-05T04:41:43;1.38;;;0.30;;
32641;SDS011;19323;56.072;9.698;2022-08-05T04:44:13;2.33;;;0.25;;
32641;SDS011;19323;56.072;9.698;2022-08-05T04:46:46;1.55;;;0.70;;
32641;SDS011;19323;56.072;9.698;2022-08-05T04:49:13;0.85;;;0.47;;
32641;SDS011;19323;56.072;9.698;2022-08-05T04:51:41;1.13;;;0.73;;
32641;SDS011;19323;56.072;9.698;2022-08-05T04:54:08;1.42;;;0.30;;
32641;SDS011;19323;56.072;9.698;2022-08-05T04:56:37;1.77;;;0.40;;
32641;SDS011;19323;56.072;9.698;2022-08-05T04:59:03;2.55;;;0.60;;
32641;SDS011;19323;56.072;9.698;2022-08-05T05:01:52;1.13;;;0.28;;
32641;SDS011;19323;56.072;9.698;2022-08-05T05:04:39;1.67;;;0.57;;
32641;SDS011;19323;56.072;9.698;2022-08-05T05:07:13;1.42;;;0.30;;
32641;SDS011;19323;56.072;9.698;2022-08-05T05:09:41;0.65;;;0.30;;
32641;SDS011;19323;56.072;9.698;2022-08-05T05:12:09;0.52;;;0.30;;
32641;SDS011;19323;56.072;9.698;2022-08-05T05:14:36;2.50;;;0.60;;
32641;SDS011;19323;56.072;9.698;2022-08-05T05:17:14;2.03;;;0.40;;
32641;SDS011;19323;56.072;9.698;2022-08-05T05:22:15;2.65;;;0.57;;
32641;SDS011;19323;56.072;9.698;2022-08-05T05:24:51;3.33;;;0.65;;
32641;SDS011;19323;56.072;9.698;2022-08-05T05:27:24;2.70;;;0.70;;
32641;SDS011;19323;56.072;9.698;2022-08-05T05:30:14;0.65;;;0.30;;
32641;SDS011;19323;56.072;9.698;2022-08-05T05:32:56;1.55;;;0.60;;
32641;SDS011;19323;56.072;9.698;2022-08-05T05:35:26;0.70;;;0.28;;
32641;SDS011;19323;56.072;9.698;2022-08-05T05:37:59;8.38;;;0.73;;
32641;SDS011;19323;56.072;9.698;2022-08-05T05:40:30;0.50;;;0.20;;
32641;SDS011;19323;56.072;9.698;2022-08-05T05:42:59;2.85;;;0.55;;
32641;SDS011;19323;56.072;9.698;2022-08-05T05:45:27;4.55;;;0.60;;
32641;SDS011;19323;56.072;9.698;2022-08-05T05:47:54;2.35;;;0.30;;
32641;SDS011;19323;56.072;9.698;2022-08-05T05:50:33;6.38;;;0.40;;
32641;SDS011;19323;56.072;9.698;2022-08-05T05:53:09;1.98;;;0.30;;
32641;SDS011;19323;56.072;9.698;2022-08-05T05:55:48;2.67;;;0.40;;
32641;SDS011;19323;56.072;9.698;2022-08-05T05:58:26;1.88;;;0.55;;
32641;SDS011;19323;56.072;9.698;2022-08-05T06:00:57;3.72;;;0.57;;
32641;SDS011;19323;56.072;9.698;2022-08-05T06:03:37;0.52;;;0.20;;
32641;SDS011;19323;56.072;9.698;2022-08-05T06:06:26;2.40;;;1.10;;
32641;SDS011;19323;56.072;9.698;2022-08-05T06:08:58;2.92;;;0.65;;
32641;SDS011;19323;56.072;9.698;2022-08-05T06:11:25;2.00;;;0.40;;
32641;SDS011;19323;56.072;9.698;2022-08-05T06:13:54;1.75;;;0.30;;
32641;SDS011;19323;56.072;9.698;2022-08-05T06:16:21;1.08;;;0.30;;
32641;SDS011;19323;56.072;9.698;2022-08-05T06:19:00;4.75;;;0.85;;
32641;SDS011;19323;56.072;9.698;2022-08-05T06:21:32;0.90;;;0.30;;
32641;SDS011;19323;56.072;9.698;2022-08-05T06:24:03;0.95;;;0.55;;
32641;SDS011;19323;56.072;9.698;2022-08-05T06:26:37;1.00;;;0.40;;
32641;SDS011;19323;56.072;9.698;2022-08-05T06:29:04;3.80;;;0.30;;
32641;SDS011;19323;56.072;9.698;2022-08-05T06:31:50;7.28;;;0.95;;
32641;SDS011;19323;56.072;9.698;2022-08-05T06:34:18;18.92;;;6.25;;
32641;SDS011;19323;56.072;9.698;2022-08-05T06:36:45;29.05;;;9.95;;
32641;SDS011;19323;56.072;9.698;2022-08-05T06:39:24;27.95;;;7.85;;
32641;SDS011;19323;56.072;9.698;2022-08-05T06:41:54;19.48;;;6.63;;
32641;SDS011;19323;56.072;9.698;2022-08-05T06:44:24;18.88;;;7.18;;
32641;SDS011;19323;56.072;9.698;2022-08-05T06:46:51;12.65;;;4.43;;
32641;SDS011;19323;56.072;9.698;2022-08-05T06:49:19;16.20;;;4.32;;
32641;SDS011;19323;56.072;9.698;2022-08-05T06:52:06;9.32;;;3.70;;
32641;SDS011;19323;56.072;9.698;2022-08-05T06:54:53;9.00;;;3.60;;
32641;SDS011;19323;56.072;9.698;2022-08-05T06:57:19;9.60;;;3.08;;
32641;SDS011;19323;56.072;9.698;2022-08-05T07:00:06;7.38;;;2.85;;
32641;SDS011;19323;56.072;9.698;2022-08-05T07:02:41;5.97;;;2.20;;
32641;SDS011;19323;56.072;9.698;2022-08-05T07:05:11;3.83;;;2.00;;
32641;SDS011;19323;56.072;9.698;2022-08-05T07:07:44;4.55;;;2.00;;
32641;SDS011;19323;56.072;9.698;2022-08-05T07:10:13;2.28;;;1.08;;
32641;SDS011;19323;56.072;9.698;2022-08-05T07:12:42;10.95;;;1.50;;
32641;SDS011;19323;56.072;9.698;2022-08-05T07:15:27;3.58;;;1.30;;
32641;SDS011;19323;56.072;9.698;2022-08-05T07:18:29;2.42;;;1.15;;
32641;SDS011;19323;56.072;9.698;2022-08-05T07:20:57;1.27;;;0.85;;
32641;SDS011;19323;56.072;9.698;2022-08-05T07:23:30;2.23;;;0.93;;
32641;SDS011;19323;56.072;9.698;2022-08-05T07:25:56;1.15;;;0.38;;
32641;SDS011;19323;56.072;9.698;2022-08-05T07:28:23;0.77;;;0.50;;
32641;SDS011;19323;56.072;9.698;2022-08-05T07:30:51;1.27;;;0.50;;
32641;SDS011;19323;56.072;9.698;2022-08-05T07:33:20;3.15;;;0.68;;
32641;SDS011;19323;56.072;9.698;2022-08-05T07:36:03;1.00;;;0.50;;
32641;SDS011;19323;56.072;9.698;2022-08-05T07:38:47;1.85;;;0.85;;
32641;SDS011;19323;56.072;9.698;2022-08-05T07:41:21;1.13;;;0.30;;
32641;SDS011;19323;56.072;9.698;2022-08-05T07:44:08;0.65;;;0.38;;
32641;SDS011;19323;56.072;9.698;2022-08-05T07:46:43;1.15;;;0.30;;
32641;SDS011;19323;56.072;9.698;2022-08-05T07:49:13;1.80;;;0.63;;
32641;SDS011;19323;56.072;9.698;2022-08-05T07:51:40;1.08;;;0.65;;
32641;SDS011;19323;56.072;9.698;2022-08-05T07:54:20;1.42;;;0.20;;
32641;SDS011;19323;56.072;9.698;2022-08-05T07:56:59;0.93;;;0.40;;
32641;SDS011;19323;56.072;9.698;2022-08-05T07:59:47;1.85;;;0.60;;
32641;SDS011;19323;56.072;9.698;2022-08-05T08:02:14;2.92;;;0.30;;
32641;SDS011;19323;56.072;9.698;2022-08-05T08:04:46;0.52;;;0.30;;
32641;SDS011;19323;56.072;9.698;2022-08-05T08:07:15;0.68;;;0.25;;
32641;SDS011;19323;56.072;9.698;2022-08-05T08:09:48;1.52;;;0.85;;
32641;SDS011;19323;56.072;9.698;2022-08-05T08:12:18;0.52;;;0.20;;
32641;SDS011;19323;56.072;9.698;2022-08-05T08:15:09;0.68;;;0.30;;
32641;SDS011;19323;56.072;9.698;2022-08-05T08:17:41;2.50;;;0.30;;
32641;SDS011;19323;56.072;9.698;2022-08-05T08:20:18;2.70;;;0.40;;
32641;SDS011;19323;56.072;9.698;2022-08-05T08:23:06;1.05;;;0.22;;
32641;SDS011;19323;56.072;9.698;2022-08-05T08:25:53;0.52;;;0.25;;
32641;SDS011;19323;56.072;9.698;2022-08-05T08:28:27;0.43;;;0.20;;
32641;SDS011;19323;56.072;9.698;2022-08-05T08:31:03;1.10;;;0.40;;
32641;SDS011;19323;56.072;9.698;2022-08-05T08:33:33;1.58;;;0.25;;
32641;SDS011;19323;56.072;9.698;2022-08-05T08:36:04;1.05;;;0.38;;
32641;SDS011;19323;56.072;9.698;2022-08-05T08:38:53;0.55;;;0.20;;
32641;SDS011;19323;56.072;9.698;2022-08-05T08:41:22;0.70;;;0.40;;
32641;SDS011;19323;56.072;9.698;2022-08-05T08:44:11;1.10;;;0.35;;
32641;SDS011;19323;56.072;9.698;2022-08-05T08:47:00;0.50;;;0.30;;
32641;SDS011;19323;56.072;9.698;2022-08-05T08:49:47;1.05;;;0.50;;
32641;SDS011;19323;56.072;9.698;2022-08-05T08:52:36;0.35;;;0.20;;
32641;SDS011;19323;56.072;9.698;2022-08-05T08:55:05;0.43;;;0.20;;
32641;SDS011;19323;56.072;9.698;2022-08-05T08:57:38;0.63;;;0.20;;
32641;SDS011;19323;56.072;9.698;2022-08-05T09:02:51;0.55;;;0.20;;
32641;SDS011;19323;56.072;9.698;2022-08-05T09:05:19;0.38;;;0.10;;
32641;SDS011;19323;56.072;9.698;2022-08-05T09:08:06;1.95;;;1.00;;
32641;SDS011;19323;56.072;9.698;2022-08-05T09:10:34;0.77;;;0.30;;
32641;SDS011;19323;56.072;9.698;2022-08-05T09:13:05;0.70;;;0.40;;
32641;SDS011;19323;56.072;9.698;2022-08-05T09:15:33;1.00;;;0.40;;
32641;SDS011;19323;56.072;9.698;2022-08-05T09:18:02;0.52;;;0.22;;
32641;SDS011;19323;56.072;9.698;2022-08-05T09:20:34;0.75;;;0.20;;
32641;SDS011;19323;56.072;9.698;2022-08-05T09:25:47;0.70;;;0.20;;
32641;SDS011;19323;56.072;9.698;2022-08-05T09:28:29;0.45;;;0.25;;
32641;SDS011;19323;56.072;9.698;2022-08-05T09:33:51;0.45;;;0.30;;
32641;SDS011;19323;56.072;9.698;2022-08-05T09:36:39;1.20;;;0.40;;
32641;SDS011;19323;56.072;9.698;2022-08-05T09:39:20;0.52;;;0.20;;
32641;SDS011;19323;56.072;9.698;2022-08-05T09:42:04;0.35;;;0.35;;
32641;SDS011;19323;56.072;9.698;2022-08-05T09:49:48;0.45;;;0.20;;
32641;SDS011;19323;56.072;9.698;2022-08-05T09:52:31;0.75;;;0.35;;
32641;SDS011;19323;56.072;9.698;2022-08-05T09:57:45;0.93;;;0.40;;
32641;SDS011;19323;56.072;9.698;2022-08-05T10:00:13;1.48;;;0.40;;
32641;SDS011;19323;56.072;9.698;2022-08-05T10:02:45;0.68;;;0.40;;
32641;SDS011;19323;56.072;9.698;2022-08-05T10:05:17;0.35;;;0.32;;
32641;SDS011;19323;56.072;9.698;2022-08-05T10:07:53;1.05;;;0.35;;
32641;SDS011;19323;56.072;9.698;2022-08-05T10:16:32;0.95;;;0.40;;
32641;SDS011;19323;56.072;9.698;2022-08-05T10:19:17;1.40;;;0.65;;
32641;SDS011;19323;56.072;9.698;2022-08-05T10:22:05;0.50;;;0.50;;
32641;SDS011;19323;56.072;9.698;2022-08-05T10:24:55;0.77;;;0.47;;
32641;SDS011;19323;56.072;9.698;2022-08-05T10:27:21;0.80;;;0.40;;
32641;SDS011;19323;56.072;9.698;2022-08-05T10:30:09;0.40;;;0.28;;
32641;SDS011;19323;56.072;9.698;2022-08-05T10:32:56;0.75;;;0.22;;
32641;SDS011;19323;56.072;9.698;2022-08-05T10:35:27;0.60;;;0.20;;
32641;SDS011;19323;56.072;9.698;2022-08-05T10:38:05;0.68;;;0.20;;
32641;SDS011;19323;56.072;9.698;2022-08-05T10:40:38;0.68;;;0.32;;
32641;SDS011;19323;56.072;9.698;2022-08-05T10:43:21;1.43;;;0.77;;
32641;SDS011;19323;56.072;9.698;2022-08-05T10:46:06;1.90;;;0.22;;
32641;SDS011;19323;56.072;9.698;2022-08-05T10:51:22;0.60;;;0.13;;
32641;SDS011;19323;56.072;9.698;2022-08-05T10:53:58;0.57;;;0.30;;
32641;SDS011;19323;56.072;9.698;2022-08-05T10:56:52;0.45;;;0.30;;
32641;SDS011;19323;56.072;9.698;2022-08-05T10:59:29;0.52;;;0.20;;
32641;SDS011;19323;56.072;9.698;2022-08-05T11:02:16;0.68;;;0.30;;
32641;SDS011;19323;56.072;9.698;2022-08-05T11:05:04;2.25;;;0.13;;
32641;SDS011;19323;56.072;9.698;2022-08-05T11:07:48;2.13;;;0.20;;
32641;SDS011;19323;56.072;9.698;2022-08-05T11:10:50;1.27;;;0.25;;
32641;SDS011;19323;56.072;9.698;2022-08-05T11:13:38;2.63;;;0.17;;
32641;SDS011;19323;56.072;9.698;2022-08-05T11:16:23;1.80;;;0.20;;
32641;SDS011;19323;56.072;9.698;2022-08-05T11:19:26;1.67;;;0.22;;
32641;SDS011;19323;56.072;9.698;2022-08-05T11:33:24;0.57;;;0.20;;
32641;SDS011;19323;56.072;9.698;2022-08-05T11:36:12;0.40;;;0.20;;
32641;SDS011;19323;56.072;9.698;2022-08-05T11:39:04;2.08;;;0.52;;
32641;SDS011;19323;56.072;9.698;2022-08-05T11:41:31;1.00;;;0.20;;
32641;SDS011;19323;56.072;9.698;2022-08-05T11:44:20;0.55;;;0.17;;
32641;SDS011;19323;56.072;9.698;2022-08-05T11:47:09;0.25;;;0.10;;
32641;SDS011;19323;56.072;9.698;2022-08-05T11:49:43;1.13;;;0.52;;
32641;SDS011;19323;56.072;9.698;2022-08-05T11:52:23;1.20;;;0.40;;
32641;SDS011;19323;56.072;9.698;2022-08-05T11:54:56;0.95;;;0.45;;
32641;SDS011;19323;56.072;9.698;2022-08-05T11:57:27;0.93;;;0.68;;
32641;SDS011;19323;56.072;9.698;2022-08-05T12:00:04;0.95;;;0.50;;
32641;SDS011;19323;56.072;9.698;2022-08-05T12:02:53;0.80;;;0.57;;
32641;SDS011;19323;56.072;9.698;2022-08-05T12:05:25;0.75;;;0.55;;
32641;SDS011;19323;56.072;9.698;2022-08-05T12:08:01;1.38;;;0.80;;
32641;SDS011;19323;56.072;9.698;2022-08-05T12:10:36;4.18;;;0.45;;
32641;SDS011;19323;56.072;9.698;2022-08-05T12:13:12;2.58;;;0.63;;
32641;SDS011;19323;56.072;9.698;2022-08-05T12:15:43;0.45;;;0.28;;
32641;SDS011;19323;56.072;9.698;2022-08-05T12:18:18;1.33;;;0.50;;
32641;SDS011;19323;56.072;9.698;2022-08-05T12:20:49;2.30;;;0.38;;
32641;SDS011;19323;56.072;9.698;2022-08-05T12:23:15;1.70;;;0.70;;
32641;SDS011;19323;56.072;9.698;2022-08-05T12:25:51;2.08;;;0.65;;
32641;SDS011;19323;56.072;9.698;2022-08-05T12:28:33;1.25;;;0.55;;
32641;SDS011;19323;56.072;9.698;2022-08-05T12:31:02;0.88;;;0.50;;
32641;SDS011;19323;56.072;9.698;2022-08-05T12:33:29;1.95;;;0.45;;
32641;SDS011;19323;56.072;9.698;2022-08-05T12:38:37;3.70;;;0.30;;
32641;SDS011;19323;56.072;9.698;2022-08-05T12:41:10;2.20;;;0.40;;
32641;SDS011;19323;56.072;9.698;2022-08-05T12:43:49;0.17;;;0.10;;
32641;SDS011;19323;56.072;9.698;2022-08-05T12:46:31;2.83;;;0.93;;
32641;SDS011;19323;56.072;9.698;2022-08-05T12:49:08;1.75;;;0.28;;
32641;SDS011;19323;56.072;9.698;2022-08-05T12:51:43;1.63;;;0.10;;
32641;SDS011;19323;56.072;9.698;2022-08-05T12:54:34;0.73;;;0.20;;
32641;SDS011;19323;56.072;9.698;2022-08-05T12:57:02;2.65;;;0.82;;
32641;SDS011;19323;56.072;9.698;2022-08-05T13:02:35;1.00;;;0.40;;
32641;SDS011;19323;56.072;9.698;2022-08-05T13:05:05;1.27;;;0.20;;
32641;SDS011;19323;56.072;9.698;2022-08-05T13:07:32;0.10;;;0.10;;
32641;SDS011;19323;56.072;9.698;2022-08-05T13:10:18;1.80;;;0.40;;
32641;SDS011;19323;56.072;9.698;2022-08-05T13:12:45;0.32;;;0.17;;
32641;SDS011;19323;56.072;9.698;2022-08-05T13:15:26;1.65;;;0.50;;
32641;SDS011;19323;56.072;9.698;2022-08-05T13:18:15;0.65;;;0.20;;
32641;SDS011;19323;56.072;9.698;2022-08-05T13:20:45;0.75;;;0.20;;
32641;SDS011;19323;56.072;9.698;2022-08-05T13:23:16;0.75;;;0.10;;
32641;SDS011;19323;56.072;9.698;2022-08-05T13:25:48;0.57;;;0.30;;
32641;SDS011;19323;56.072;9.698;2022-08-05T13:28:26;3.75;;;0.57;;
32641;SDS011;19323;56.072;9.698;2022-08-05T13:30:53;1.08;;;0.40;;
32641;SDS011;19323;56.072;9.698;2022-08-05T13:33:22;1.55;;;0.40;;
32641;SDS011;19323;56.072;9.698;2022-08-05T13:36:08;3.03;;;0.32;;
32641;SDS011;19323;56.072;9.698;2022-08-05T13:38:35;0.75;;;0.20;;
32641;SDS011;19323;56.072;9.698;2022-08-05T13:41:08;1.13;;;0.32;;
32641;SDS011;19323;56.072;9.698;2022-08-05T13:43:36;0.75;;;0.20;;
32641;SDS011;19323;56.072;9.698;2022-08-05T13:46:16;0.40;;;0.25;;
32641;SDS011;19323;56.072;9.698;2022-08-05T13:49:04;2.63;;;0.10;;
32641;SDS011;19323;56.072;9.698;2022-08-05T13:51:36;2.25;;;0.70;;
32641;SDS011;19323;56.072;9.698;2022-08-05T13:54:06;0.20;;;0.10;;
32641;SDS011;19323;56.072;9.698;2022-08-05T13:56:38;4.47;;;0.80;;
32641;SDS011;19323;56.072;9.698;2022-08-05T13:59:10;2.33;;;0.10;;
32641;SDS011;19323;56.072;9.698;2022-08-05T14:01:46;0.40;;;0.15;;
32641;SDS011;19323;56.072;9.698;2022-08-05T14:04:25;1.73;;;0.25;;
32641;SDS011;19323;56.072;9.698;2022-08-05T14:07:37;0.88;;;0.40;;
32641;SDS011;19323;56.072;9.698;2022-08-05T14:10:26;1.13;;;0.20;;
32641;SDS011;19323;56.072;9.698;2022-08-05T14:12:54;6.95;;;0.13;;
32641;SDS011;19323;56.072;9.698;2022-08-05T14:15:22;0.93;;;0.30;;
32641;SDS011;19323;56.072;9.698;2022-08-05T14:18:08;0.35;;;0.10;;
32641;SDS011;19323;56.072;9.698;2022-08-05T14:23:13;0.20;;;0.10;;
32641;SDS011;19323;56.072;9.698;2022-08-05T14:25:50;0.63;;;0.20;;
32641;SDS011;19323;56.072;9.698;2022-08-05T14:28:19;2.15;;;0.30;;
32641;SDS011;19323;56.072;9.698;2022-08-05T14:30:52;2.93;;;0.20;;
32641;SDS011;19323;56.072;9.698;2022-08-05T14:33:23;3.17;;;0.10;;
32641;SDS011;19323;56.072;9.698;2022-08-05T14:35:50;4.32;;;0.10;;
32641;SDS011;19323;56.072;9.698;2022-08-05T14:38:19;1.58;;;0.20;;
32641;SDS011;19323;56.072;9.698;2022-08-05T14:40:59;1.98;;;0.10;;
32641;SDS011;19323;56.072;9.698;2022-08-05T14:43:26;1.88;;;0.30;;
32641;SDS011;19323;56.072;9.698;2022-08-05T14:46:13;2.90;;;0.50;;
32641;SDS011;19323;56.072;9.698;2022-08-05T14:48:39;0.80;;;0.30;;
32641;SDS011;19323;56.072;9.698;2022-08-05T14:51:06;0.40;;;0.20;;
32641;SDS011;19323;56.072;9.698;2022-08-05T14:53:33;0.70;;;0.20;;
32641;SDS011;19323;56.072;9.698;2022-08-05T14:56:09;0.98;;;0.15;;
32641;SDS011;19323;56.072;9.698;2022-08-05T14:58:36;0.85;;;0.20;;
32641;SDS011;19323;56.072;9.698;2022-08-05T15:01:13;0.60;;;0.10;;
32641;SDS011;19323;56.072;9.698;2022-08-05T15:03:41;0.52;;;0.20;;
32641;SDS011;19323;56.072;9.698;2022-08-05T15:06:10;0.75;;;0.10;;
32641;SDS011;19323;56.072;9.698;2022-08-05T15:08:41;0.47;;;0.10;;
32641;SDS011;19323;56.072;9.698;2022-08-05T15:11:29;0.75;;;0.10;;
32641;SDS011;19323;56.072;9.698;2022-08-05T15:14:16;0.98;;;0.20;;
32641;SDS011;19323;56.072;9.698;2022-08-05T15:17:02;0.40;;;0.10;;
32641;SDS011;19323;56.072;9.698;2022-08-05T15:19:35;0.20;;;0.10;;
32641;SDS011;19323;56.072;9.698;2022-08-05T15:22:04;0.75;;;0.30;;
32641;SDS011;19323;56.072;9.698;2022-08-05T15:24:31;0.15;;;0.15;;
32641;SDS011;19323;56.072;9.698;2022-08-05T15:26:57;0.70;;;0.40;;
32641;SDS011;19323;56.072;9.698;2022-08-05T15:29:24;0.68;;;0.20;;
32641;SDS011;19323;56.072;9.698;2022-08-05T15:31:55;1.00;;;0.28;;
32641;SDS011;19323;56.072;9.698;2022-08-05T15:34:28;1.30;;;0.28;;
32641;SDS011;19323;56.072;9.698;2022-08-05T15:36:58;1.30;;;0.30;;
32641;SDS011;19323;56.072;9.698;2022-08-05T15:39:31;0.63;;;0.30;;
32641;SDS011;19323;56.072;9.698;2022-08-05T15:42:18;1.00;;;0.17;;
32641;SDS011;19323;56.072;9.698;2022-08-05T15:45:05;2.63;;;0.20;;
32641;SDS011;19323;56.072;9.698;2022-08-05T15:47:34;0.88;;;0.30;;
32641;SDS011;19323;56.072;9.698;2022-08-05T15:50:01;1.00;;;0.40;;
32641;SDS011;19323;56.072;9.698;2022-08-05T15:52:28;2.78;;;0.32;;
32641;SDS011;19323;56.072;9.698;2022-08-05T15:55:17;0.98;;;0.38;;
32641;SDS011;19323;56.072;9.698;2022-08-05T15:57:49;3.10;;;0.28;;
32641;SDS011;19323;56.072;9.698;2022-08-05T16:00:16;2.63;;;0.50;;
32641;SDS011;19323;56.072;9.698;2022-08-05T16:02:57;2.28;;;0.47;;
32641;SDS011;19323;56.072;9.698;2022-08-05T16:05:24;0.85;;;0.28;;
32641;SDS011;19323;56.072;9.698;2022-08-05T16:07:53;0.52;;;0.30;;
32641;SDS011;19323;56.072;9.698;2022-08-05T16:10:22;0.77;;;0.30;;
32641;SDS011;19323;56.072;9.698;2022-08-05T16:12:52;2.00;;;0.40;;
32641;SDS011;19323;56.072;9.698;2022-08-05T16:15:21;0.28;;;0.17;;
32641;SDS011;19323;56.072;9.698;2022-08-05T16:17:48;1.60;;;0.47;;
32641;SDS011;19323;56.072;9.698;2022-08-05T16:20:23;0.40;;;0.20;;
32641;SDS011;19323;56.072;9.698;2022-08-05T16:22:50;1.67;;;0.20;;
32641;SDS011;19323;56.072;9.698;2022-08-05T16:25:16;1.05;;;0.22;;
32641;SDS011;19323;56.072;9.698;2022-08-05T16:27:43;0.68;;;0.20;;
32641;SDS011;19323;56.072;9.698;2022-08-05T16:30:25;0.90;;;0.50;;
32641;SDS011;19323;56.072;9.698;2022-08-05T16:32:54;2.05;;;0.75;;
32641;SDS011;19323;56.072;9.698;2022-08-05T16:35:21;1.15;;;0.40;;